Tri-City, KS

2:55 PM CDT on May 27, 2015 (GMT -0500)
Independence Municipal | | Change Station
CLOSE
Current Station
Airport
Location: Independence,
Elevation: 823 ft
Nearby Weather Stations

Elev 823 ft 37.16 °N, 95.78 °W | Updated 20 minutes ago

Partly Cloudy
Partly Cloudy
81 °F
Feels Like 82 °F
N
5
Wind Variable Wind from South

Today
High -- | Low -- °F
--% Chance of Precip.
Yesterday
High -- | Low -- °F
Precip. -- in
6:05 AM 8:33 PM
Waxing Gibbous, 69% visible
Pressure 30.08 in
Visibility 10.0 miles
Clouds Scattered Clouds 3700 ft
Mostly Cloudy 5000 ft
Mostly Cloudy 11000 ft
Heat Index 82 °F
Dew Point 64 °F
Humidity 58%
Rainfall 0.00 in
Snow Depth Not available.
UV 6 out of 12
Pollen 4.10 out of 12
Air Quality Not available.
Flu Activity No Activity
METAR KIDP 271935Z AUTO 18004KT 10SM SCT037 BKN050 BKN110 27/18 A3008 RMK AO2

More Conditions Fewer Conditions

Pressure 30.08 in
Visibility 10.0 miles
Clouds Scattered Clouds 3700 ft
Mostly Cloudy 5000 ft
Mostly Cloudy 11000 ft
Heat Index 82 °F
Dew Point 64 °F
Humidity 58%
Rainfall 0.00 in
Snow Depth Not available.
UV 6 out of 12
Pollen 4.10 out of 12
Air Quality Not available.
Flu Activity No Activity
METAR KIDP 271935Z AUTO 18004KT 10SM SCT037 BKN050 BKN110 27/18 A3008 RMK AO2

More Conditions Fewer Conditions

10-Day Weather Forecast

Almanac

Astronomy

May. 27, 2015 Rise Set
Actual Time
Civil Twilight
Nautical Twilight
Astronomical Twilight
Moon
Length of Visible Light
Length of Day
Tomorrow will be .
, % of the Moon is Illuminated

Today's Extremes

State Highs State Lows

Community

WunderPhotos

Upload Photos

1,824,774 photos uploaded!

WunderBlogs® & News

Nearby

Air Quality

  Air Quality AQ Index Pollutant
Not available.

Snow Depth

Station Depth Elevation

Earthquake Activity

City Distance Mag. Time & Date
Minimum magnitude displayed is 2.5.

Coastal Water Temperatures

Place Temperature

Stations

Nearby Weather Stations

Station Location Temp. Windchill Dew Point Humidity Wind Precip. Elev Updated Type